^^
Station Historical Data
Daily Summary for August 4, 2017 Units:  Metric    English   Both
« Previous Day
Next Day »
Daily Weekly Monthly Yearly Custom
  High: Low: Average:
Temperature: 19.9 °C 7.9 °C 12.6 °C
Dew Point: 7.2 °C -3.2 °C 4 °C
Humidity: 82% 21% 59%
Wind Speed: 32km/h 0km/h 9km/h
Wind Gust: 33.8km/h - -
Wind- - SW
Pressure: 1020.5 hPa 1016.5 hPa -
Precipitation: 0 mm    
Historical Graphs
 
 
Tabular Data for August 4, 2017
Time Temperature Dew Point Pressure Wind Wind Speed Wind Gust Humidity Rainfall Rate (Hourly) solar Conditions
00:04 13 °C 3.6 °C 1018.2 hPa Calm     53% 0 mm 0.0 W/m2
00:10 12.9 °C 3.5 °C 1018.2 hPa Calm     53% 0 mm 0.0 W/m2
00:20 12.6 °C 3.5 °C 1018.2 hPa Calm     54% 0 mm 0.0 W/m2
00:25 12.5 °C 3.2 °C 1018.2 hPa Calm     53% 0 mm 0.0 W/m2
00:31 12.2 °C 3.2 °C 1018.2 hPa Calm     54% 0 mm 0.0 W/m2
00:36 12.1 °C 3.3 °C 1017.8 hPa Calm     55% 0 mm 0.0 W/m2
00:41 12 °C 3.5 °C 1017.8 hPa Calm     56% 0 mm 0.0 W/m2
00:46 12.1 °C 4.1 °C 1017.8 hPa Calm     58% 0 mm 0.0 W/m2
00:51 12.1 °C 3.8 °C 1017.8 hPa Calm     57% 0 mm 0.0 W/m2
00:56 12.1 °C 3.6 °C 1017.8 hPa Calm     56% 0 mm 0.0 W/m2
01:01 12 °C 3.7 °C 1017.8 hPa Calm     57% 0 mm 0.0 W/m2
01:06 11.9 °C 3.9 °C 1017.5 hPa Calm     58% 0 mm 0.0 W/m2
01:12 11.8 °C 3.6 °C 1017.5 hPa Calm     57% 0 mm 0.0 W/m2
01:17 11.6 °C 3.6 °C 1017.5 hPa Calm     58% 0 mm 0.0 W/m2
01:22 11.5 °C 3.8 °C 1017.5 hPa Calm     59% 0 mm 0.0 W/m2
01:27 11.5 °C 3.8 °C 1017.5 hPa Calm     59% 0 mm 0.0 W/m2
01:33 11.4 °C 3.7 °C 1017.5 hPa Calm     59% 0 mm 0.0 W/m2
01:38 11.3 °C 3.3 °C 1017.5 hPa Calm     58% 0 mm 0.0 W/m2
01:43 11.1 °C 3.4 °C 1017.5 hPa Calm     59% 0 mm 0.0 W/m2
01:48 10.9 °C 3.7 °C 1017.5 hPa Calm     61% 0 mm 0.0 W/m2
01:53 10.9 °C 3.4 °C 1017.5 hPa Calm     60% 0 mm 0.0 W/m2
01:59 10.7 °C 3.2 °C 1017.5 hPa Calm     60% 0 mm 0.0 W/m2
02:04 10.6 °C 3.2 °C 1017.5 hPa Calm     60% 0 mm 0.0 W/m2
02:09 10.4 °C 3.4 °C 1017.5 hPa Calm     62% 0 mm 0.0 W/m2
02:15 10.3 °C 3.6 °C 1017.5 hPa Calm     63% 0 mm 0.0 W/m2
02:20 10.3 °C 3.6 °C 1017.5 hPa Calm     63% 0 mm 0.0 W/m2
02:25 10.3 °C 3.6 °C 1017.5 hPa Calm     63% 0 mm 0.0 W/m2
02:30 10.2 °C 3.7 °C 1017.5 hPa Calm     64% 0 mm 0.0 W/m2
02:35 10.2 °C 3.7 °C 1017.5 hPa Calm     64% 0 mm 0.0 W/m2
02:41 10.3 °C 4 °C 1017.2 hPa Calm     65% 0 mm 0.0 W/m2
02:46 10.3 °C 4 °C 1017.2 hPa Calm     65% 0 mm 0.0 W/m2
02:51 10.3 °C 4 °C 1017.2 hPa Calm     65% 0 mm 0.0 W/m2
02:56 10.2 °C 3.9 °C 1017.2 hPa Calm     65% 0 mm 0.0 W/m2
03:02 10.1 °C 4 °C 1017.2 hPa Calm     66% 0 mm 0.0 W/m2
03:07 10 °C 4.2 °C 1017.2 hPa Calm     67% 0 mm 0.0 W/m2
03:12 10 °C 4.2 °C 1017.2 hPa Calm     67% 0 mm 0.0 W/m2
03:17 10.1 °C 4.7 °C 1017.2 hPa Calm     69% 0 mm 0.0 W/m2
03:22 10.7 °C 5.5 °C 1017.5 hPa WNW 9.7 km/h 9.7 km/h 70% 0 mm 0.0 W/m2
03:27 11.2 °C 5.7 °C 1017.5 hPa WNW 13 km/h 16.1 km/h 69% 0 mm 0.0 W/m2
03:32 11.6 °C 5.9 °C 1017.2 hPa WNW 9.7 km/h 16.1 km/h 68% 0 mm 0.0 W/m2
03:42 11.7 °C 5.8 °C 1017.2 hPa WNW 7.9 km/h 12.9 km/h 67% 0 mm 0.0 W/m2
03:47 11.6 °C 5.7 °C 1017.5 hPa WNW 11.1 km/h 12.9 km/h 67% 0 mm 0.0 W/m2
03:52 11.5 °C 5.8 °C 1017.5 hPa WNW 11.1 km/h 12.9 km/h 68% 0 mm 0.0 W/m2
03:57 11.4 °C 5.9 °C 1017.5 hPa WNW 13 km/h 16.1 km/h 69% 0 mm 0.0 W/m2
04:08 11.1 °C 5.6 °C 1017.2 hPa WNW 7.9 km/h 9.7 km/h 69% 0 mm 0.0 W/m2
04:18 10.8 °C 5.8 °C 1017.2 hPa WNW 7.9 km/h 9.7 km/h 71% 0 mm 0.0 W/m2
04:28 10.4 °C 5.4 °C 1017.2 hPa WNW 3.2 km/h 4.8 km/h 71% 0 mm 0.0 W/m2
04:34 10.2 °C 5.4 °C 1017.2 hPa WNW 3.2 km/h 4.8 km/h 72% 0 mm 0.0 W/m2
04:39 10 °C 5.2 °C 1017.2 hPa WNW 4.7 km/h 4.8 km/h 72% 0 mm 0.0 W/m2
04:44 9.8 °C 5.2 °C 1017.2 hPa WNW 4.7 km/h 4.8 km/h 73% 0 mm 0.0 W/m2
04:49 9.6 °C 5 °C 1017.2 hPa Calm     73% 0 mm 0.0 W/m2
04:55 9.3 °C 4.9 °C 1017.2 hPa Calm     74% 0 mm 0.0 W/m2
05:00 9.2 °C 4.8 °C 1016.8 hPa Calm     74% 0 mm 0.0 W/m2
05:05 8.9 °C 4.5 °C 1017.2 hPa Calm     74% 0 mm 0.0 W/m2
05:10 8.8 °C 4.6 °C 1017.2 hPa Calm     75% 0 mm 0.0 W/m2
05:15 8.6 °C 4.4 °C 1017.2 hPa Calm     75% 0 mm 0.0 W/m2
05:20 8.4 °C 4.2 °C 1017.2 hPa Calm     75% 0 mm 0.0 W/m2
05:26 8.3 °C 4.5 °C 1017.2 hPa Calm     77% 0 mm 0.0 W/m2
05:31 8.2 °C 4 °C 1017.2 hPa Calm     75% 0 mm 0.0 W/m2
05:36 8 °C 3.8 °C 1017.5 hPa Calm     75% 0 mm 0.0 W/m2
05:41 7.9 °C 4.3 °C 1017.5 hPa Calm     78% 0 mm 0.0 W/m2
05:46 8.1 °C 4.7 °C 1017.5 hPa Calm     79% 0 mm 0.0 W/m2
05:56 8.6 °C 5.7 °C 1017.5 hPa WNW 11.1 km/h 11.3 km/h 82% 0 mm 0.0 W/m2
06:02 9.4 °C 6.3 °C 1017.5 hPa WNW 7.9 km/h 11.3 km/h 81% 0 mm 0.0 W/m2
06:07 9.8 °C 6.3 °C 1017.5 hPa WNW 11.1 km/h 16.1 km/h 79% 0 mm 0.0 W/m2
06:17 10.1 °C 6.3 °C 1017.5 hPa WNW 7.9 km/h 12.9 km/h 77% 0 mm 0.0 W/m2
06:22 9.9 °C 6.1 °C 1017.5 hPa WNW 7.9 km/h 8 km/h 77% 0 mm 0.0 W/m2
06:27 9.8 °C 6 °C 1017.8 hPa WNW 4.7 km/h 6.4 km/h 77% 0 mm 0.0 W/m2
06:33 9.8 °C 6.3 °C 1017.8 hPa WNW 7.9 km/h 11.3 km/h 79% 0 mm 7.0 W/m2
06:38 9.9 °C 6.2 °C 1017.5 hPa WNW 6.4 km/h 9.7 km/h 78% 0 mm 11.0 W/m2
06:47 9.5 °C 5.7 °C 1017.8 hPa Calm     77% 0 mm 19.0 W/m2
06:52 9.3 °C 5.7 °C 1017.8 hPa Calm     78% 0 mm 18.0 W/m2
06:57 9.2 °C 5.6 °C 1017.8 hPa WNW 6.4 km/h 6.4 km/h 78% 0 mm 19.0 W/m2
07:03 9 °C 5.6 °C 1017.8 hPa WNW 3.2 km/h 6.4 km/h 79% 0 mm 23.0 W/m2
07:10 8.9 °C 5.5 °C 1017.5 hPa WNW 6.4 km/h 8 km/h 79% 0 mm 26.0 W/m2
07:23 8.9 °C 5.5 °C 1017.8 hPa Calm     79% 0 mm 40.0 W/m2
07:34 8.9 °C 5.5 °C 1017.8 hPa Calm     79% 0 mm 116.0 W/m2
08:36 12.4 °C 7.1 °C 1018.2 hPa WNW 16.3 km/h 17.7 km/h 70% 0 mm 304.0 W/m2
08:50 13 °C 7.2 °C 1018.2 hPa WNW 13 km/h 13 km/h 68% 0 mm 345.0 W/m2
09:05 13.7 °C 7.2 °C 1018.2 hPa WNW 13 km/h 17.7 km/h 65% 0 mm 385.0 W/m2
09:46 14.1 °C 6.7 °C 1018.5 hPa WSW 24.1 km/h 29 km/h 61% 0 mm 482.0 W/m2
10:00 13.6 °C 6.5 °C 1018.8 hPa SW 25.9 km/h 29 km/h 62% 0 mm 512.0 W/m2
10:16 13.2 °C 6.5 °C 1018.8 hPa SW 17.7 km/h 30.6 km/h 64% 0 mm 536.0 W/m2
10:47 14.1 °C 6.5 °C 1018.8 hPa SW 24.1 km/h 27.4 km/h 60% 0 mm 582.0 W/m2
11:00 14.9 °C 6.7 °C 1018.5 hPa SSW 27.4 km/h 30.6 km/h 58% 0 mm 599.0 W/m2
11:09 15.2 °C 6.7 °C 1018.8 hPa SSW 32 km/h 32.2 km/h 57% 0 mm 608.0 W/m2
11:21 15.4 °C 6.7 °C 1018.5 hPa SSW 25.9 km/h 33.8 km/h 56% 0 mm 615.0 W/m2
11:33 16.1 °C 6.5 °C 1018.2 hPa SSW 19.5 km/h 24.1 km/h 53% 0 mm 628.0 W/m2
11:44 16.6 °C 6.1 °C 1018.2 hPa SSW 22.7 km/h 27.4 km/h 50% 0 mm 629.0 W/m2
11:53 16.9 °C 5.5 °C 1018.2 hPa SSW 28.8 km/h 32.2 km/h 47% 0 mm 631.0 W/m2
11:59 17.1 °C 5.4 °C 1017.8 hPa SSW 19.5 km/h 25.7 km/h 46% 0 mm 629.0 W/m2
12:09 17.5 °C 5.1 °C 1017.8 hPa SSW 19.5 km/h 27.4 km/h 44% 0 mm 631.0 W/m2
12:18 17.7 °C 4.3 °C 1017.8 hPa SSW 20.9 km/h 30.6 km/h 41% 0 mm 628.0 W/m2
12:27 17.9 °C 3.4 °C 1017.8 hPa SSW 19.5 km/h 29 km/h 38% 0 mm 626.0 W/m2
12:33 18.1 °C 3.6 °C 1017.5 hPa SSW 14.3 km/h 29 km/h 38% 0 mm 624.0 W/m2
12:40 18.3 °C 4.1 °C 1017.5 hPa SSW 20.9 km/h 29 km/h 39% 0 mm 621.0 W/m2
12:51 18.5 °C 3.1 °C 1017.5 hPa SSW 22.7 km/h 27.4 km/h 36% 0 mm 612.0 W/m2
13:06 18.8 °C 3 °C 1017.2 hPa SSW 19.5 km/h 25.7 km/h 35% 0 mm 599.0 W/m2
13:17 19 °C 2.4 °C 1017.2 hPa SSW 19.5 km/h 25.7 km/h 33% 0 mm 589.0 W/m2
13:58 19.3 °C 3 °C 1016.5 hPa SSW 14.3 km/h 24.1 km/h 34% 0 mm 497.0 W/m2
14:41 19.9 °C -0.2 °C 1016.8 hPa SSW 25.9 km/h 29 km/h 26% 0 mm 420.0 W/m2
14:49 19.9 °C -2.5 °C 1016.8 hPa South 25.9 km/h 29 km/h 22% 0 mm 422.0 W/m2
14:55 19.8 °C -1.9 °C 1016.5 hPa South 22.7 km/h 25.7 km/h 23% 0 mm 396.0 W/m2
15:00 19.8 °C -3.2 °C 1016.5 hPa South 24.1 km/h 27.4 km/h 21% 0 mm 311.0 W/m2
15:18 19.5 °C -1.1 °C 1016.8 hPa SSW 20.9 km/h 29 km/h 25% 0 mm 283.0 W/m2
15:33 19.1 °C 0.2 °C 1016.8 hPa SSW 25.9 km/h 27.4 km/h 28% 0 mm 213.0 W/m2
15:48 18.4 °C 0 °C 1016.8 hPa SSW 20.9 km/h 27.4 km/h 29% 0 mm 178.0 W/m2
16:29 17.8 °C 1.3 °C 1017.5 hPa South 17.7 km/h 24.1 km/h 33% 0 mm 79.0 W/m2
16:44 17.4 °C 1.4 °C 1017.8 hPa South 24.1 km/h 27.4 km/h 34% 0 mm 47.0 W/m2
16:57 17.1 °C 2.3 °C 1017.8 hPa South 25.9 km/h 29 km/h 37% 0 mm 46.0 W/m2
17:03 16.7 °C 2.3 °C 1017.8 hPa SSW 27.4 km/h 30.6 km/h 38% 0 mm 21.0 W/m2
17:13 16.2 °C 2.2 °C 1018.2 hPa South 14.3 km/h 29 km/h 39% 0 mm 9.0 W/m2
17:35 15.8 °C 2.2 °C 1018.5 hPa South 16.3 km/h 20.9 km/h 40% 0 mm 0.0 W/m2
17:48 15.5 °C 3 °C 1018.5 hPa South 16.3 km/h 25.7 km/h 43% 0 mm 0.0 W/m2
17:59 15.3 °C 2.8 °C 1018.5 hPa South 16.3 km/h 24.1 km/h 43% 0 mm 0.0 W/m2
18:15 15.1 °C 2.9 °C 1018.8 hPa South 14.3 km/h 24.1 km/h 44% 0 mm 0.0 W/m2
18:59 14.2 °C 1.8 °C 1019.2 hPa South 9.7 km/h 17.7 km/h 43% 0 mm 0.0 W/m2
19:09 13.8 °C 1.4 °C 1019.5 hPa South 13 km/h 16.1 km/h 43% 0 mm 0.0 W/m2
19:28 13.6 °C 2.2 °C 1019.5 hPa South 11.1 km/h 16.1 km/h 46% 0 mm 0.0 W/m2
19:40 13.3 °C 2.8 °C 1019.9 hPa South 13 km/h 16.1 km/h 49% 0 mm 0.0 W/m2
19:55 13.1 °C 2.9 °C 1019.9 hPa South 13 km/h 20.9 km/h 50% 0 mm 0.0 W/m2
20:04 12.8 °C 2.6 °C 1019.9 hPa South 9.7 km/h 16.1 km/h 50% 0 mm 0.0 W/m2
20:39 12.3 °C 2.4 °C 1020.2 hPa South 14.3 km/h 14.5 km/h 51% 0 mm 0.0 W/m2
20:52 12.2 °C 2.6 °C 1020.2 hPa South 9.7 km/h 14.5 km/h 52% 0 mm 0.0 W/m2
21:07 11.7 °C 2.4 °C 1020.2 hPa South 9.7 km/h 14.5 km/h 53% 0 mm 0.0 W/m2
21:22 11.9 °C 2.9 °C 1020.5 hPa South 13 km/h 17.7 km/h 54% 0 mm 0.0 W/m2
21:35 11.6 °C 2.9 °C 1020.2 hPa South 9.7 km/h 16.1 km/h 55% 0 mm 0.0 W/m2
21:44 11.6 °C 3.1 °C 1020.2 hPa South 13 km/h 19.3 km/h 56% 0 mm 0.0 W/m2
21:51 11.6 °C 3.1 °C 1020.2 hPa South 13 km/h 14.5 km/h 56% 0 mm 0.0 W/m2
Canyon Roadhouse, Fishriver Canyon, Namibia
Compliments of Weather Underground - 2.25 mb